sensor_id;sensor_type;location;lat;lon;timestamp;pressure;altitude;pressure_sealevel;temperature;humidity
77975;BME280;67164;51.202;0.278;2023-12-20T00:02:14;101835.13;;;21.50;41.14
77975;BME280;67164;51.202;0.278;2023-12-20T00:04:39;101837.30;;;21.46;40.98
77975;BME280;67164;51.202;0.278;2023-12-20T00:07:05;101841.37;;;21.45;41.10
77975;BME280;67164;51.202;0.278;2023-12-20T00:09:31;101842.19;;;21.45;41.07
77975;BME280;67164;51.202;0.278;2023-12-20T00:11:57;101844.79;;;21.43;41.19
77975;BME280;67164;51.202;0.278;2023-12-20T00:14:22;101848.45;;;21.43;41.11
77975;BME280;67164;51.202;0.278;2023-12-20T00:16:48;101849.41;;;21.40;41.36
77975;BME280;67164;51.202;0.278;2023-12-20T00:19:14;101857.32;;;21.37;41.13
77975;BME280;67164;51.202;0.278;2023-12-20T00:21:40;101859.23;;;21.32;41.32
77975;BME280;67164;51.202;0.278;2023-12-20T00:24:06;101860.83;;;21.30;41.04
77975;BME280;67164;51.202;0.278;2023-12-20T00:26:31;101860.04;;;21.31;41.21
77975;BME280;67164;51.202;0.278;2023-12-20T00:28:57;101853.42;;;21.24;41.12
77975;BME280;67164;51.202;0.278;2023-12-20T00:31:23;101849.60;;;21.46;41.28
77975;BME280;67164;51.202;0.278;2023-12-20T00:33:48;101849.65;;;21.18;41.30
77975;BME280;67164;51.202;0.278;2023-12-20T00:36:14;101852.11;;;21.21;41.14
77975;BME280;67164;51.202;0.278;2023-12-20T00:38:40;101856.17;;;21.23;41.18
77975;BME280;67164;51.202;0.278;2023-12-20T00:41:06;101859.84;;;21.40;41.19
77975;BME280;67164;51.202;0.278;2023-12-20T00:43:32;101861.34;;;21.45;41.11
77975;BME280;67164;51.202;0.278;2023-12-20T00:45:57;101859.47;;;21.44;40.98
77975;BME280;67164;51.202;0.278;2023-12-20T00:48:23;101859.87;;;21.14;40.93
77975;BME280;67164;51.202;0.278;2023-12-20T00:50:49;101865.61;;;21.08;41.02
77975;BME280;67164;51.202;0.278;2023-12-20T00:53:15;101868.80;;;21.07;41.09
77975;BME280;67164;51.202;0.278;2023-12-20T00:55:40;101869.85;;;21.34;41.11
77975;BME280;67164;51.202;0.278;2023-12-20T00:58:06;101868.98;;;21.10;40.92
77975;BME280;67164;51.202;0.278;2023-12-20T01:00:32;101856.70;;;21.08;40.98
77975;BME280;67164;51.202;0.278;2023-12-20T01:02:58;101843.17;;;21.30;41.03
77975;BME280;67164;51.202;0.278;2023-12-20T01:05:24;101832.80;;;21.03;40.96
77975;BME280;67164;51.202;0.278;2023-12-20T01:07:49;101834.39;;;21.01;41.14
77975;BME280;67164;51.202;0.278;2023-12-20T01:10:15;101837.61;;;21.02;41.26
77975;BME280;67164;51.202;0.278;2023-12-20T01:12:41;101839.71;;;21.05;40.76
77975;BME280;67164;51.202;0.278;2023-12-20T01:15:07;101831.13;;;21.26;41.01
77975;BME280;67164;51.202;0.278;2023-12-20T01:17:32;101834.42;;;21.29;40.83
77975;BME280;67164;51.202;0.278;2023-12-20T01:19:58;101834.85;;;21.26;41.05
77975;BME280;67164;51.202;0.278;2023-12-20T01:22:24;101838.02;;;21.00;41.04
77975;BME280;67164;51.202;0.278;2023-12-20T01:24:50;101839.25;;;21.23;41.07
77975;BME280;67164;51.202;0.278;2023-12-20T01:27:16;101839.21;;;21.23;41.05
77975;BME280;67164;51.202;0.278;2023-12-20T01:29:41;101840.03;;;21.20;41.02
77975;BME280;67164;51.202;0.278;2023-12-20T01:32:07;101843.03;;;20.96;41.07
77975;BME280;67164;51.202;0.278;2023-12-20T01:34:33;101842.04;;;20.95;41.13
77975;BME280;67164;51.202;0.278;2023-12-20T01:36:59;101841.07;;;21.23;41.12
77975;BME280;67164;51.202;0.278;2023-12-20T01:39:25;101837.43;;;20.71;41.04
77975;BME280;67164;51.202;0.278;2023-12-20T01:41:50;101838.94;;;20.96;41.12
77975;BME280;67164;51.202;0.278;2023-12-20T01:44:16;101832.51;;;21.20;41.10
77975;BME280;67164;51.202;0.278;2023-12-20T01:46:42;101830.90;;;20.97;41.17
77975;BME280;67164;51.202;0.278;2023-12-20T01:49:08;101833.73;;;20.89;41.00
77975;BME280;67164;51.202;0.278;2023-12-20T01:51:34;101840.02;;;20.84;40.82
77975;BME280;67164;51.202;0.278;2023-12-20T01:54:00;101843.30;;;21.19;41.05
77975;BME280;67164;51.202;0.278;2023-12-20T01:56:26;101843.55;;;20.91;40.88
77975;BME280;67164;51.202;0.278;2023-12-20T01:58:51;101839.75;;;20.66;40.82
77975;BME280;67164;51.202;0.278;2023-12-20T02:01:17;101837.34;;;20.83;40.76
77975;BME280;67164;51.202;0.278;2023-12-20T02:03:43;101835.98;;;20.84;40.67
77975;BME280;67164;51.202;0.278;2023-12-20T02:06:09;101834.98;;;20.82;40.68
77975;BME280;67164;51.202;0.278;2023-12-20T02:08:34;101838.09;;;20.79;40.72
77975;BME280;67164;51.202;0.278;2023-12-20T02:11:00;101841.04;;;20.43;40.69
77975;BME280;67164;51.202;0.278;2023-12-20T02:13:26;101840.66;;;20.85;40.73
77975;BME280;67164;51.202;0.278;2023-12-20T02:15:52;101844.69;;;20.54;40.58
77975;BME280;67164;51.202;0.278;2023-12-20T02:18:17;101841.68;;;20.89;40.59
77975;BME280;67164;51.202;0.278;2023-12-20T02:20:43;101837.88;;;20.60;40.56
77975;BME280;67164;51.202;0.278;2023-12-20T02:23:09;101831.34;;;21.02;40.66
77975;BME280;67164;51.202;0.278;2023-12-20T02:25:35;101833.37;;;20.84;40.50
77975;BME280;67164;51.202;0.278;2023-12-20T02:28:01;101825.89;;;20.83;40.65
77975;BME280;67164;51.202;0.278;2023-12-20T02:30:26;101824.59;;;20.76;40.50
77975;BME280;67164;51.202;0.278;2023-12-20T02:32:52;101819.11;;;20.51;40.47
77975;BME280;67164;51.202;0.278;2023-12-20T02:35:18;101819.61;;;20.77;40.51
77975;BME280;67164;51.202;0.278;2023-12-20T02:37:44;101820.11;;;20.52;40.50
77975;BME280;67164;51.202;0.278;2023-12-20T02:40:10;101824.17;;;20.47;40.61
77975;BME280;67164;51.202;0.278;2023-12-20T02:42:35;101830.19;;;20.77;40.49
77975;BME280;67164;51.202;0.278;2023-12-20T02:45:01;101834.51;;;20.83;40.59
77975;BME280;67164;51.202;0.278;2023-12-20T02:47:27;101832.14;;;20.44;40.48
77975;BME280;67164;51.202;0.278;2023-12-20T02:49:53;101830.67;;;20.76;40.41
77975;BME280;67164;51.202;0.278;2023-12-20T02:52:18;101828.17;;;20.60;40.45
77975;BME280;67164;51.202;0.278;2023-12-20T02:54:44;101823.03;;;20.66;40.47
77975;BME280;67164;51.202;0.278;2023-12-20T02:57:10;101817.69;;;20.67;40.49
77975;BME280;67164;51.202;0.278;2023-12-20T02:59:36;101815.37;;;20.65;40.60
77975;BME280;67164;51.202;0.278;2023-12-20T03:02:02;101813.07;;;21.00;40.60
77975;BME280;67164;51.202;0.278;2023-12-20T03:04:27;101816.22;;;21.00;40.38
77975;BME280;67164;51.202;0.278;2023-12-20T03:06:53;101813.60;;;20.70;40.38
77975;BME280;67164;51.202;0.278;2023-12-20T03:09:19;101815.90;;;20.81;40.35
77975;BME280;67164;51.202;0.278;2023-12-20T03:11:45;101817.99;;;20.66;40.24
77975;BME280;67164;51.202;0.278;2023-12-20T03:14:10;101814.18;;;20.79;40.26
77975;BME280;67164;51.202;0.278;2023-12-20T03:16:36;101818.76;;;20.61;40.24
77975;BME280;67164;51.202;0.278;2023-12-20T03:19:02;101822.58;;;20.77;40.25
77975;BME280;67164;51.202;0.278;2023-12-20T03:21:28;101817.21;;;20.78;40.27
77975;BME280;67164;51.202;0.278;2023-12-20T03:23:54;101816.08;;;20.86;40.20
77975;BME280;67164;51.202;0.278;2023-12-20T03:26:19;101812.75;;;20.87;40.27
77975;BME280;67164;51.202;0.278;2023-12-20T03:28:45;101814.22;;;20.61;40.23
77975;BME280;67164;51.202;0.278;2023-12-20T03:31:11;101813.32;;;20.87;40.15
77975;BME280;67164;51.202;0.278;2023-12-20T03:33:37;101809.41;;;20.49;40.30
77975;BME280;67164;51.202;0.278;2023-12-20T03:36:03;101811.14;;;20.57;40.24
77975;BME280;67164;51.202;0.278;2023-12-20T03:38:28;101806.43;;;20.71;40.06
77975;BME280;67164;51.202;0.278;2023-12-20T03:40:54;101806.02;;;20.70;40.03
77975;BME280;67164;51.202;0.278;2023-12-20T03:43:20;101803.39;;;20.68;40.07
77975;BME280;67164;51.202;0.278;2023-12-20T03:45:46;101806.49;;;20.32;40.12
77975;BME280;67164;51.202;0.278;2023-12-20T03:48:12;101810.84;;;20.63;40.07
77975;BME280;67164;51.202;0.278;2023-12-20T03:50:37;101810.44;;;20.31;40.10
77975;BME280;67164;51.202;0.278;2023-12-20T03:53:03;101806.41;;;20.19;40.17
77975;BME280;67164;51.202;0.278;2023-12-20T03:55:29;101804.25;;;20.72;40.16
77975;BME280;67164;51.202;0.278;2023-12-20T03:57:55;101803.03;;;20.66;40.11
77975;BME280;67164;51.202;0.278;2023-12-20T04:00:20;101797.18;;;20.88;40.02
77975;BME280;67164;51.202;0.278;2023-12-20T04:02:46;101797.98;;;20.63;40.13
77975;BME280;67164;51.202;0.278;2023-12-20T04:05:12;101802.67;;;20.51;40.10
77975;BME280;67164;51.202;0.278;2023-12-20T04:07:38;101807.65;;;20.76;40.07
77975;BME280;67164;51.202;0.278;2023-12-20T04:10:05;101810.22;;;20.55;40.10
77975;BME280;67164;51.202;0.278;2023-12-20T04:12:29;101809.81;;;20.71;40.09
77975;BME280;67164;51.202;0.278;2023-12-20T04:14:55;101811.02;;;20.78;40.10
77975;BME280;67164;51.202;0.278;2023-12-20T04:17:21;101803.87;;;20.75;40.07
77975;BME280;67164;51.202;0.278;2023-12-20T04:19:47;101805.30;;;20.76;40.07
77975;BME280;67164;51.202;0.278;2023-12-20T04:22:13;101809.24;;;20.79;40.06
77975;BME280;67164;51.202;0.278;2023-12-20T04:24:38;101807.91;;;20.67;40.10
77975;BME280;67164;51.202;0.278;2023-12-20T04:27:04;101805.79;;;20.47;40.06
77975;BME280;67164;51.202;0.278;2023-12-20T04:29:30;101804.96;;;20.51;40.03
77975;BME280;67164;51.202;0.278;2023-12-20T04:31:56;101801.41;;;20.83;40.01
77975;BME280;67164;51.202;0.278;2023-12-20T04:34:23;101798.87;;;20.27;40.07
77975;BME280;67164;51.202;0.278;2023-12-20T04:36:47;101805.22;;;20.83;39.96
77975;BME280;67164;51.202;0.278;2023-12-20T04:39:13;101803.67;;;20.53;39.99
77975;BME280;67164;51.202;0.278;2023-12-20T04:41:39;101805.86;;;20.61;39.96
77975;BME280;67164;51.202;0.278;2023-12-20T04:44:05;101805.82;;;20.39;40.07
77975;BME280;67164;51.202;0.278;2023-12-20T04:46:30;101808.63;;;20.82;39.93
77975;BME280;67164;51.202;0.278;2023-12-20T04:48:56;101815.20;;;20.60;39.89
77975;BME280;67164;51.202;0.278;2023-12-20T04:51:22;101811.44;;;20.76;39.94
77975;BME280;67164;51.202;0.278;2023-12-20T04:53:48;101811.84;;;20.41;40.02
77975;BME280;67164;51.202;0.278;2023-12-20T04:56:13;101805.99;;;20.15;40.05
77975;BME280;67164;51.202;0.278;2023-12-20T04:58:39;101801.53;;;20.80;39.89
77975;BME280;67164;51.202;0.278;2023-12-20T05:01:06;101802.49;;;20.91;39.81
77975;BME280;67164;51.202;0.278;2023-12-20T05:03:31;101790.83;;;20.66;39.81
77975;BME280;67164;51.202;0.278;2023-12-20T05:05:57;101788.47;;;20.56;39.84
77975;BME280;67164;51.202;0.278;2023-12-20T05:08:22;101796.47;;;20.59;39.88
77975;BME280;67164;51.202;0.278;2023-12-20T05:10:48;101797.31;;;20.55;39.81
77975;BME280;67164;51.202;0.278;2023-12-20T05:13:14;101797.82;;;20.63;39.79
77975;BME280;67164;51.202;0.278;2023-12-20T05:15:45;101801.40;;;20.84;39.78
77975;BME280;67164;51.202;0.278;2023-12-20T05:18:06;101799.70;;;20.70;39.68
77975;BME280;67164;51.202;0.278;2023-12-20T05:20:31;101802.34;;;20.53;39.82
77975;BME280;67164;51.202;0.278;2023-12-20T05:22:57;101797.32;;;20.62;39.73
77975;BME280;67164;51.202;0.278;2023-12-20T05:25:23;101801.70;;;20.73;39.61
77975;BME280;67164;51.202;0.278;2023-12-20T05:27:49;101801.11;;;20.37;39.69
77975;BME280;67164;51.202;0.278;2023-12-20T05:30:15;101790.98;;;20.77;39.72
77975;BME280;67164;51.202;0.278;2023-12-20T05:32:40;101788.77;;;20.79;39.80
77975;BME280;67164;51.202;0.278;2023-12-20T05:35:06;101784.61;;;20.74;39.80
77975;BME280;67164;51.202;0.278;2023-12-20T05:37:32;101785.17;;;20.66;39.65
77975;BME280;67164;51.202;0.278;2023-12-20T05:39:58;101784.81;;;20.57;39.71
77975;BME280;67164;51.202;0.278;2023-12-20T05:42:24;101783.24;;;20.62;39.66
77975;BME280;67164;51.202;0.278;2023-12-20T05:44:49;101776.24;;;20.84;39.64
77975;BME280;67164;51.202;0.278;2023-12-20T05:47:15;101776.03;;;20.60;39.67
77975;BME280;67164;51.202;0.278;2023-12-20T05:49:41;101779.64;;;20.68;39.63
77975;BME280;67164;51.202;0.278;2023-12-20T05:52:07;101779.26;;;20.61;39.61
77975;BME280;67164;51.202;0.278;2023-12-20T05:54:32;101777.13;;;20.62;39.66
77975;BME280;67164;51.202;0.278;2023-12-20T05:56:58;101773.24;;;20.66;39.58
77975;BME280;67164;51.202;0.278;2023-12-20T05:59:24;101772.77;;;20.69;39.60
77975;BME280;67164;51.202;0.278;2023-12-20T06:01:50;101774.24;;;20.73;39.53
77975;BME280;67164;51.202;0.278;2023-12-20T06:04:16;101771.04;;;20.68;39.52
77975;BME280;67164;51.202;0.278;2023-12-20T06:06:42;101762.40;;;20.88;39.60
77975;BME280;67164;51.202;0.278;2023-12-20T06:09:07;101765.48;;;20.62;39.60
77975;BME280;67164;51.202;0.278;2023-12-20T06:11:33;101761.66;;;20.72;39.53
77975;BME280;67164;51.202;0.278;2023-12-20T06:13:59;101754.18;;;20.83;39.62
77975;BME280;67164;51.202;0.278;2023-12-20T06:16:24;101746.17;;;20.72;39.65
77975;BME280;67164;51.202;0.278;2023-12-20T06:18:50;101751.44;;;20.61;39.61
77975;BME280;67164;51.202;0.278;2023-12-20T06:21:16;101750.89;;;20.49;39.67
77975;BME280;67164;51.202;0.278;2023-12-20T06:23:42;101746.29;;;20.57;39.63
77975;BME280;67164;51.202;0.278;2023-12-20T06:26:07;101739.71;;;20.49;39.61
77975;BME280;67164;51.202;0.278;2023-12-20T06:28:33;101744.71;;;20.75;39.60
77975;BME280;67164;51.202;0.278;2023-12-20T06:30:59;101748.16;;;20.76;39.57
77975;BME280;67164;51.202;0.278;2023-12-20T06:33:25;101755.88;;;20.66;39.68
77975;BME280;67164;51.202;0.278;2023-12-20T06:35:51;101765.56;;;20.80;39.63
77975;BME280;67164;51.202;0.278;2023-12-20T06:38:18;101766.85;;;20.92;39.48
77975;BME280;67164;51.202;0.278;2023-12-20T06:40:42;101767.02;;;20.80;39.58
77975;BME280;67164;51.202;0.278;2023-12-20T06:43:08;101766.17;;;20.67;39.47
77975;BME280;67164;51.202;0.278;2023-12-20T06:45:33;101768.33;;;20.63;39.51
77975;BME280;67164;51.202;0.278;2023-12-20T06:47:59;101767.01;;;20.88;39.47
77975;BME280;67164;51.202;0.278;2023-12-20T06:50:25;101761.76;;;20.54;39.56
77975;BME280;67164;51.202;0.278;2023-12-20T06:52:51;101756.81;;;20.53;39.53
77975;BME280;67164;51.202;0.278;2023-12-20T06:55:16;101763.99;;;20.48;39.54
77975;BME280;67164;51.202;0.278;2023-12-20T06:57:42;101765.44;;;20.84;39.51
77975;BME280;67164;51.202;0.278;2023-12-20T07:00:10;101766.03;;;20.78;39.51
77975;BME280;67164;51.202;0.278;2023-12-20T07:02:34;101758.10;;;20.52;39.51
77975;BME280;67164;51.202;0.278;2023-12-20T07:04:59;101756.76;;;20.48;39.53
77975;BME280;67164;51.202;0.278;2023-12-20T07:07:25;101751.48;;;20.46;39.54
77975;BME280;67164;51.202;0.278;2023-12-20T07:09:51;101756.60;;;20.78;39.50
77975;BME280;67164;51.202;0.278;2023-12-20T07:12:17;101752.32;;;20.69;39.39
77975;BME280;67164;51.202;0.278;2023-12-20T07:14:43;101745.85;;;20.78;39.52
77975;BME280;67164;51.202;0.278;2023-12-20T07:17:08;101737.61;;;20.71;39.51
77975;BME280;67164;51.202;0.278;2023-12-20T07:19:34;101743.65;;;20.80;39.49
77975;BME280;67164;51.202;0.278;2023-12-20T07:22:00;101752.34;;;20.73;39.50
77975;BME280;67164;51.202;0.278;2023-12-20T07:24:26;101752.38;;;20.69;39.54
77975;BME280;67164;51.202;0.278;2023-12-20T07:26:51;101746.28;;;20.45;39.58
77975;BME280;67164;51.202;0.278;2023-12-20T07:29:17;101749.69;;;20.43;39.56
77975;BME280;67164;51.202;0.278;2023-12-20T07:31:43;101752.18;;;20.69;39.54
77975;BME280;67164;51.202;0.278;2023-12-20T07:34:09;101751.86;;;20.75;39.43
77975;BME280;67164;51.202;0.278;2023-12-20T07:36:35;101749.67;;;20.66;39.55
77975;BME280;67164;51.202;0.278;2023-12-20T07:39:01;101747.61;;;20.66;39.53
77975;BME280;67164;51.202;0.278;2023-12-20T07:41:26;101756.16;;;20.50;39.44
77975;BME280;67164;51.202;0.278;2023-12-20T07:43:52;101757.35;;;20.20;39.51
77975;BME280;67164;51.202;0.278;2023-12-20T07:46:18;101759.11;;;20.69;39.52
77975;BME280;67164;51.202;0.278;2023-12-20T07:48:44;101752.75;;;20.70;39.47
77975;BME280;67164;51.202;0.278;2023-12-20T07:51:09;101760.41;;;20.68;39.50
77975;BME280;67164;51.202;0.278;2023-12-20T07:53:35;101759.17;;;20.45;39.49
77975;BME280;67164;51.202;0.278;2023-12-20T07:56:01;101757.39;;;20.47;39.49
77975;BME280;67164;51.202;0.278;2023-12-20T07:58:27;101750.17;;;20.77;39.38
77975;BME280;67164;51.202;0.278;2023-12-20T08:00:52;101743.41;;;20.65;39.49
77975;BME280;67164;51.202;0.278;2023-12-20T08:03:18;101745.91;;;20.50;39.45
77975;BME280;67164;51.202;0.278;2023-12-20T08:05:44;101744.89;;;20.51;39.41
77975;BME280;67164;51.202;0.278;2023-12-20T08:08:10;101757.97;;;20.41;39.45
77975;BME280;67164;51.202;0.278;2023-12-20T08:10:35;101758.95;;;20.44;39.43
77975;BME280;67164;51.202;0.278;2023-12-20T08:13:01;101753.87;;;20.66;39.46
77975;BME280;67164;51.202;0.278;2023-12-20T08:15:27;101751.94;;;20.41;39.50
77975;BME280;67164;51.202;0.278;2023-12-20T08:17:53;101751.31;;;20.65;39.51
77975;BME280;67164;51.202;0.278;2023-12-20T08:20:19;101756.15;;;20.60;39.49
77975;BME280;67164;51.202;0.278;2023-12-20T08:22:44;101769.55;;;20.51;39.42
77975;BME280;67164;51.202;0.278;2023-12-20T08:25:10;101760.02;;;20.47;39.42
77975;BME280;67164;51.202;0.278;2023-12-20T08:27:40;101764.33;;;20.49;39.34
77975;BME280;67164;51.202;0.278;2023-12-20T08:30:02;101765.35;;;20.57;39.35
77975;BME280;67164;51.202;0.278;2023-12-20T08:32:28;101767.84;;;20.43;39.42
77975;BME280;67164;51.202;0.278;2023-12-20T08:34:53;101777.03;;;20.74;39.36
77975;BME280;67164;51.202;0.278;2023-12-20T08:37:19;101782.93;;;20.38;39.39
77975;BME280;67164;51.202;0.278;2023-12-20T08:39:45;101786.62;;;20.67;39.41
77975;BME280;67164;51.202;0.278;2023-12-20T08:42:11;101793.17;;;20.46;39.39
77975;BME280;67164;51.202;0.278;2023-12-20T08:44:37;101789.24;;;20.72;39.37
77975;BME280;67164;51.202;0.278;2023-12-20T08:47:03;101787.92;;;20.72;39.18
77975;BME280;67164;51.202;0.278;2023-12-20T08:49:28;101786.86;;;20.75;39.14
77975;BME280;67164;51.202;0.278;2023-12-20T08:51:54;101783.97;;;20.51;39.57
77975;BME280;67164;51.202;0.278;2023-12-20T08:54:19;101777.74;;;20.76;39.37
77975;BME280;67164;51.202;0.278;2023-12-20T08:56:45;101772.76;;;20.56;39.56
77975;BME280;67164;51.202;0.278;2023-12-20T08:59:10;101777.62;;;20.85;39.76
77975;BME280;67164;51.202;0.278;2023-12-20T09:01:35;101781.96;;;20.39;40.09
77975;BME280;67164;51.202;0.278;2023-12-20T09:04:01;101782.70;;;20.64;40.02
77975;BME280;67164;51.202;0.278;2023-12-20T09:06:26;101778.54;;;20.85;40.20
77975;BME280;67164;51.202;0.278;2023-12-20T09:08:52;101771.35;;;20.38;40.34
77975;BME280;67164;51.202;0.278;2023-12-20T09:11:18;101775.02;;;20.78;40.06
77975;BME280;67164;51.202;0.278;2023-12-20T09:13:43;101769.30;;;20.78;40.00
77975;BME280;67164;51.202;0.278;2023-12-20T09:16:09;101766.55;;;20.53;40.04
77975;BME280;67164;51.202;0.278;2023-12-20T09:18:34;101766.00;;;20.68;40.48
77975;BME280;67164;51.202;0.278;2023-12-20T09:20:59;101763.18;;;20.66;40.81
77975;BME280;67164;51.202;0.278;2023-12-20T09:23:25;101765.91;;;20.92;40.79
77975;BME280;67164;51.202;0.278;2023-12-20T09:25:50;101760.98;;;20.76;40.90
77975;BME280;67164;51.202;0.278;2023-12-20T09:28:16;101765.46;;;20.53;40.93
77975;BME280;67164;51.202;0.278;2023-12-20T09:30:42;101759.55;;;20.46;41.04
77975;BME280;67164;51.202;0.278;2023-12-20T09:33:07;101760.20;;;20.66;41.14
77975;BME280;67164;51.202;0.278;2023-12-20T09:35:32;101760.83;;;20.47;40.85
77975;BME280;67164;51.202;0.278;2023-12-20T09:37:58;101759.54;;;20.78;40.74
77975;BME280;67164;51.202;0.278;2023-12-20T09:40:26;101768.15;;;20.86;40.60
77975;BME280;67164;51.202;0.278;2023-12-20T09:42:55;101758.61;;;20.83;40.73
77975;BME280;67164;51.202;0.278;2023-12-20T09:45:15;101762.50;;;21.00;40.49
77975;BME280;67164;51.202;0.278;2023-12-20T09:47:41;101763.74;;;20.97;40.42
77975;BME280;67164;51.202;0.278;2023-12-20T09:50:07;101757.26;;;20.85;40.25
77975;BME280;67164;51.202;0.278;2023-12-20T09:52:33;101772.74;;;20.97;40.18
77975;BME280;67164;51.202;0.278;2023-12-20T09:54:58;101778.79;;;20.78;40.39
77975;BME280;67164;51.202;0.278;2023-12-20T09:57:24;101777.02;;;20.57;40.59
77975;BME280;67164;51.202;0.278;2023-12-20T09:59:50;101776.18;;;20.90;40.51
77975;BME280;67164;51.202;0.278;2023-12-20T10:02:18;101774.61;;;20.35;40.53
77975;BME280;67164;51.202;0.278;2023-12-20T10:04:46;101774.08;;;20.42;40.40
77975;BME280;67164;51.202;0.278;2023-12-20T10:07:07;101777.23;;;20.64;40.38
77975;BME280;67164;51.202;0.278;2023-12-20T10:09:34;101783.75;;;20.66;40.35
77975;BME280;67164;51.202;0.278;2023-12-20T10:11:59;101786.21;;;20.48;40.27
77975;BME280;67164;51.202;0.278;2023-12-20T10:14:25;101778.37;;;20.75;40.23
77975;BME280;67164;51.202;0.278;2023-12-20T10:16:50;101766.33;;;20.88;40.09
77975;BME280;67164;51.202;0.278;2023-12-20T10:19:17;101760.32;;;21.18;39.99
77975;BME280;67164;51.202;0.278;2023-12-20T10:21:42;101765.49;;;20.94;39.97
77975;BME280;67164;51.202;0.278;2023-12-20T10:24:07;101755.35;;;21.03;39.90
77975;BME280;67164;51.202;0.278;2023-12-20T10:26:33;101746.37;;;20.99;39.91
77975;BME280;67164;51.202;0.278;2023-12-20T10:29:01;101741.20;;;20.89;39.95
77975;BME280;67164;51.202;0.278;2023-12-20T10:31:26;101746.00;;;21.15;39.81
77975;BME280;67164;51.202;0.278;2023-12-20T10:33:50;101748.81;;;21.10;39.83
77975;BME280;67164;51.202;0.278;2023-12-20T10:36:16;101752.41;;;21.06;39.89
77975;BME280;67164;51.202;0.278;2023-12-20T10:38:42;101746.93;;;20.81;39.93
77975;BME280;67164;51.202;0.278;2023-12-20T10:41:09;101739.84;;;20.86;39.90
77975;BME280;67164;51.202;0.278;2023-12-20T10:43:34;101734.56;;;20.88;39.90
77975;BME280;67164;51.202;0.278;2023-12-20T10:45:59;101738.25;;;20.84;39.94
77975;BME280;67164;51.202;0.278;2023-12-20T10:48:26;101738.44;;;20.85;39.92
77975;BME280;67164;51.202;0.278;2023-12-20T10:50:51;101729.98;;;20.84;39.93
77975;BME280;67164;51.202;0.278;2023-12-20T10:53:17;101715.10;;;20.82;39.94
77975;BME280;67164;51.202;0.278;2023-12-20T10:55:43;101706.77;;;21.06;39.95
77975;BME280;67164;51.202;0.278;2023-12-20T10:58:09;101701.93;;;21.08;39.90
77975;BME280;67164;51.202;0.278;2023-12-20T11:00:40;101700.35;;;20.81;39.96
77975;BME280;67164;51.202;0.278;2023-12-20T11:03:01;101701.58;;;21.06;39.95
77975;BME280;67164;51.202;0.278;2023-12-20T11:05:33;101697.15;;;21.00;39.94
77975;BME280;67164;51.202;0.278;2023-12-20T11:07:58;101695.32;;;20.99;39.95
77975;BME280;67164;51.202;0.278;2023-12-20T11:10:22;101695.92;;;20.98;39.95
77975;BME280;67164;51.202;0.278;2023-12-20T11:12:48;101694.72;;;20.93;40.00
77975;BME280;67164;51.202;0.278;2023-12-20T11:15:09;101693.56;;;20.69;39.99
77975;BME280;67164;51.202;0.278;2023-12-20T11:17:35;101695.55;;;20.66;40.00
77975;BME280;67164;51.202;0.278;2023-12-20T11:20:06;101687.99;;;20.87;40.02
77975;BME280;67164;51.202;0.278;2023-12-20T11:22:29;101683.76;;;20.84;39.99
77975;BME280;67164;51.202;0.278;2023-12-20T11:24:53;101682.76;;;20.84;39.89
77975;BME280;67164;51.202;0.278;2023-12-20T11:27:18;101678.88;;;20.79;39.97
77975;BME280;67164;51.202;0.278;2023-12-20T11:29:51;101676.89;;;20.45;40.17
77975;BME280;67164;51.202;0.278;2023-12-20T11:34:36;101673.96;;;20.74;40.19
77975;BME280;67164;51.202;0.278;2023-12-20T11:37:03;101669.13;;;20.69;40.23
77975;BME280;67164;51.202;0.278;2023-12-20T11:39:27;101656.67;;;20.55;40.41
77975;BME280;67164;51.202;0.278;2023-12-20T11:41:54;101652.56;;;20.65;40.38
77975;BME280;67164;51.202;0.278;2023-12-20T11:44:18;101648.34;;;20.46;40.38
77975;BME280;67164;51.202;0.278;2023-12-20T11:46:44;101640.30;;;20.67;40.39
77975;BME280;67164;51.202;0.278;2023-12-20T11:49:10;101637.74;;;20.65;40.44
77975;BME280;67164;51.202;0.278;2023-12-20T11:51:35;101632.17;;;20.66;40.44
77975;BME280;67164;51.202;0.278;2023-12-20T11:54:01;101625.47;;;20.61;40.48
77975;BME280;67164;51.202;0.278;2023-12-20T11:56:27;101623.86;;;20.40;40.46
77975;BME280;67164;51.202;0.278;2023-12-20T11:58:53;101622.25;;;20.66;40.41
77975;BME280;67164;51.202;0.278;2023-12-20T12:01:20;101609.17;;;20.42;40.41
77975;BME280;67164;51.202;0.278;2023-12-20T12:03:44;101609.89;;;20.63;40.43
77975;BME280;67164;51.202;0.278;2023-12-20T12:06:10;101617.30;;;20.65;40.44
77975;BME280;67164;51.202;0.278;2023-12-20T12:08:36;101607.03;;;20.62;40.42
77975;BME280;67164;51.202;0.278;2023-12-20T12:11:02;101595.41;;;20.37;40.46
77975;BME280;67164;51.202;0.278;2023-12-20T12:13:27;101581.56;;;20.60;40.46
77975;BME280;67164;51.202;0.278;2023-12-20T12:15:53;101561.51;;;20.58;40.45
77975;BME280;67164;51.202;0.278;2023-12-20T12:18:19;101549.77;;;20.59;40.41
77975;BME280;67164;51.202;0.278;2023-12-20T12:20:45;101548.53;;;20.59;40.42
77975;BME280;67164;51.202;0.278;2023-12-20T12:23:11;101543.10;;;20.52;40.46
77975;BME280;67164;51.202;0.278;2023-12-20T12:25:36;101541.34;;;20.54;40.39
77975;BME280;67164;51.202;0.278;2023-12-20T12:28:02;101540.27;;;20.54;40.35
77975;BME280;67164;51.202;0.278;2023-12-20T12:30:28;101537.23;;;20.51;40.44
77975;BME280;67164;51.202;0.278;2023-12-20T12:32:55;101524.85;;;20.48;40.48
77975;BME280;67164;51.202;0.278;2023-12-20T12:35:20;101517.54;;;20.43;40.57
77975;BME280;67164;51.202;0.278;2023-12-20T12:37:46;101513.92;;;20.47;40.52
77975;BME280;67164;51.202;0.278;2023-12-20T12:40:12;101514.22;;;20.45;40.47
77975;BME280;67164;51.202;0.278;2023-12-20T12:42:37;101512.10;;;20.45;40.46
77975;BME280;67164;51.202;0.278;2023-12-20T12:45:03;101514.28;;;20.46;40.47